createdAt,value
2019-05-02T00:00:31.286Z,88.01
2019-05-02T00:02:59.938Z,88.35
2019-05-02T00:05:32.027Z,88.45
2019-05-02T00:08:00.323Z,88.32
2019-05-02T00:10:29.056Z,88.40
2019-05-02T00:12:57.547Z,88.22
2019-05-02T00:15:26.119Z,88.17
2019-05-02T00:17:56.761Z,88.84
2019-05-02T00:20:25.981Z,89.02
2019-05-02T00:22:54.849Z,89.19
2019-05-02T00:25:23.283Z,89.16
2019-05-02T00:27:51.693Z,89.11
2019-05-02T00:30:20.665Z,88.17
2019-05-02T00:32:53.095Z,88.47
2019-05-02T00:35:20.261Z,87.65
2019-05-02T00:37:48.808Z,87.99
2019-05-02T00:40:20.292Z,88.26
2019-05-02T00:42:47.413Z,88.18
2019-05-02T00:45:18.745Z,89.32
2019-05-02T00:47:50.081Z,88.58
2019-05-02T00:50:18.787Z,87.55
2019-05-02T00:52:47.226Z,88.04
2019-05-02T00:55:15.638Z,88.40
2019-05-02T00:57:44.064Z,88.22
2019-05-02T01:00:13.265Z,88.38
2019-05-02T01:02:47.374Z,87.89
2019-05-02T01:05:15.819Z,88.02
2019-05-02T01:07:44.282Z,88.03
2019-05-02T01:10:17.268Z,87.56
2019-05-02T01:12:46.080Z,87.58
2019-05-02T01:15:14.703Z,87.56
2019-05-02T01:17:43.086Z,87.77
2019-05-02T01:20:11.838Z,87.86
2019-05-02T01:22:40.319Z,87.81
2019-05-02T01:25:15.367Z,87.91
2019-05-02T01:27:42.447Z,88.66
2019-05-02T01:30:18.999Z,88.69
2019-05-02T01:33:01.276Z,88.85
2019-05-02T01:35:31.636Z,89.14
2019-05-02T01:38:18.099Z,89.26
2019-05-02T01:40:53.088Z,89.54
2019-05-02T01:43:26.811Z,89.70
2019-05-02T01:45:55.311Z,89.73
2019-05-02T01:48:24.075Z,88.64
2019-05-02T01:50:52.668Z,87.76
2019-05-02T01:53:21.170Z,86.80
2019-05-02T01:55:51.901Z,86.41
2019-05-02T01:58:22.830Z,87.19
2019-05-02T02:00:50.952Z,88.94
2019-05-02T02:03:19.379Z,88.89
2019-05-02T02:05:47.981Z,88.95
2019-05-02T02:08:16.488Z,90.67
2019-05-02T02:10:44.909Z,90.97
2019-05-02T02:13:13.386Z,91.18
2019-05-02T02:15:41.847Z,90.74
2019-05-02T02:18:10.607Z,90.81
2019-05-02T02:20:55.147Z,90.92
2019-05-02T02:23:37.024Z,90.92
2019-05-02T02:26:12.031Z,90.68
2019-05-02T02:28:40.616Z,90.29
2019-05-02T02:31:09.154Z,90.55
2019-05-02T02:33:40.983Z,90.34
2019-05-02T02:36:07.779Z,90.28
2019-05-02T02:38:36.185Z,90.25
2019-05-02T02:41:06.381Z,90.45
2019-05-02T02:43:35.152Z,90.42
2019-05-02T02:46:08.332Z,90.23
2019-05-02T02:48:40.594Z,88.89
2019-05-02T02:51:07.431Z,89.15
2019-05-02T02:53:35.884Z,89.18
2019-05-02T02:56:06.715Z,89.06
2019-05-02T02:58:44.174Z,89.23
2019-05-02T03:01:05.810Z,89.76
2019-05-02T03:03:35.267Z,90.44
2019-05-02T03:06:07.741Z,90.52
2019-05-02T03:08:45.118Z,90.75
2019-05-02T03:11:05.025Z,90.78
2019-05-02T03:13:52.409Z,90.90
2019-05-02T03:16:21.299Z,91.11
2019-05-02T03:18:49.753Z,91.25
2019-05-02T03:21:20.489Z,91.45
2019-05-02T03:23:48.321Z,91.61
2019-05-02T03:26:17.331Z,91.62
2019-05-02T03:28:57.141Z,91.47
2019-05-02T03:31:29.120Z,91.55
2019-05-02T03:33:54.717Z,91.00
2019-05-02T03:36:29.685Z,91.33
2019-05-02T03:38:47.295Z,91.25
2019-05-02T03:41:20.835Z,90.50
2019-05-02T03:43:46.108Z,90.28
2019-05-02T03:46:20.662Z,90.85
2019-05-02T03:48:44.837Z,90.99
2019-05-02T03:51:21.786Z,90.59
2019-05-02T03:53:43.581Z,90.89
2019-05-02T03:56:14.159Z,90.92
2019-05-02T03:58:48.682Z,90.77
2019-05-02T04:01:12.389Z,90.42
2019-05-02T04:03:43.739Z,90.32
2019-05-02T04:06:20.270Z,89.79
2019-05-02T04:08:44.077Z,89.93
2019-05-02T04:11:15.629Z,90.36
2019-05-02T04:13:44.090Z,90.12
2019-05-02T04:16:15.341Z,89.95
2019-05-02T04:18:54.514Z,89.76
2019-05-02T04:21:13.438Z,89.32
2019-05-02T04:23:42.673Z,88.86
2019-05-02T04:26:13.141Z,89.87
2019-05-02T04:28:45.575Z,89.26
2019-05-02T04:31:11.348Z,88.84
2019-05-02T04:33:39.783Z,88.45
2019-05-02T04:36:15.862Z,88.86
2019-05-02T04:38:46.968Z,88.72
2019-05-02T04:41:09.373Z,89.42
2019-05-02T04:43:43.095Z,89.70
2019-05-02T04:46:09.377Z,89.40
2019-05-02T04:48:43.763Z,88.86
2019-05-02T04:51:14.219Z,88.76
2019-05-02T04:53:42.304Z,88.00
2019-05-02T04:56:10.571Z,87.99
2019-05-02T04:58:40.613Z,87.87
2019-05-02T05:01:10.073Z,87.68
2019-05-02T05:03:38.720Z,87.31
2019-05-02T05:06:11.912Z,87.58
2019-05-02T05:08:38.779Z,88.29
2019-05-02T05:11:07.894Z,88.27
2019-05-02T05:13:37.341Z,87.98
2019-05-02T05:16:08.136Z,88.11
2019-05-02T05:18:37.760Z,88.34
2019-05-02T05:21:10.249Z,87.72
2019-05-02T05:23:59.495Z,86.66
2019-05-02T05:26:27.527Z,86.71
2019-05-02T05:28:55.398Z,87.85
2019-05-02T05:31:25.725Z,87.00
2019-05-02T05:33:54.007Z,87.00
2019-05-02T05:36:29.308Z,86.88
2019-05-02T05:38:52.562Z,86.87
2019-05-02T05:41:23.171Z,87.33
2019-05-02T05:43:53.596Z,87.54
2019-05-02T05:46:21.431Z,87.05
2019-05-02T05:48:49.915Z,87.93
2019-05-02T05:51:20.627Z,89.02
2019-05-02T05:53:52.403Z,89.02
2019-05-02T05:56:18.696Z,89.63
2019-05-02T05:58:52.433Z,89.47
2019-05-02T06:01:20.453Z,89.79
2019-05-02T06:03:47.614Z,90.29
2019-05-02T06:06:22.368Z,90.25
2019-05-02T06:08:49.153Z,90.62
2019-05-02T06:11:20.132Z,90.23
2019-05-02T06:13:48.900Z,89.91
2019-05-02T06:16:16.810Z,89.93
2019-05-02T06:18:45.230Z,89.14
2019-05-02T06:21:13.752Z,88.92
2019-05-02T06:23:43.347Z,88.38
2019-05-02T06:26:13.600Z,86.75
2019-05-02T06:28:43.244Z,86.77
2019-05-02T06:31:11.723Z,87.42
2019-05-02T06:33:40.170Z,86.98
2019-05-02T06:36:09.000Z,87.03
2019-05-02T06:38:37.484Z,85.40
2019-05-02T06:41:05.956Z,86.44
2019-05-02T06:43:34.426Z,85.44
2019-05-02T06:46:15.395Z,85.03
2019-05-02T06:48:33.050Z,85.31
2019-05-02T06:51:01.444Z,84.72
2019-05-02T06:53:29.892Z,84.43
2019-05-02T06:55:58.303Z,85.25
2019-05-02T06:58:26.715Z,85.08
2019-05-02T07:00:58.392Z,84.32
2019-05-02T07:03:27.634Z,84.43
2019-05-02T07:05:58.642Z,83.68
2019-05-02T07:08:26.096Z,83.87
2019-05-02T07:10:55.844Z,84.15
2019-05-02T07:13:24.611Z,84.17
2019-05-02T07:16:10.473Z,84.55
2019-05-02T07:18:41.984Z,83.73
2019-05-02T07:21:12.169Z,83.22
2019-05-02T07:23:39.953Z,83.71
2019-05-02T07:26:09.375Z,84.03
2019-05-02T07:28:40.305Z,83.46
2019-05-02T07:31:11.988Z,82.51
2019-05-02T07:33:38.800Z,81.14
2019-05-02T07:36:07.352Z,78.51
2019-05-02T07:38:35.783Z,79.86
2019-05-02T07:41:04.456Z,80.11
2019-05-02T07:43:32.874Z,77.94
2019-05-02T07:46:01.450Z,76.19
2019-05-02T07:48:29.933Z,78.50
2019-05-02T07:50:58.312Z,79.24
2019-05-02T07:53:26.748Z,79.23
2019-05-02T07:55:55.169Z,76.50
2019-05-02T07:58:23.697Z,76.72
2019-05-02T08:00:52.135Z,76.19
2019-05-02T08:03:20.580Z,74.56
2019-05-02T08:05:49.065Z,74.63
2019-05-02T08:08:17.523Z,75.20
2019-05-02T08:10:46.031Z,74.23
2019-05-02T08:13:17.463Z,73.54
2019-05-02T08:15:50.633Z,73.08
2019-05-02T08:18:15.797Z,72.27
2019-05-02T08:20:44.278Z,71.64
2019-05-02T08:23:13.655Z,71.43
2019-05-02T08:25:45.374Z,73.27
2019-05-02T08:28:17.856Z,69.51
2019-05-02T08:30:48.119Z,67.93
2019-05-02T08:33:16.520Z,67.78
2019-05-02T08:35:44.960Z,67.60
2019-05-02T08:38:17.833Z,68.40
2019-05-02T08:40:47.931Z,67.40
2019-05-02T08:43:14.045Z,69.36
2019-05-02T08:45:42.510Z,68.92
2019-05-02T08:48:10.917Z,67.77
2019-05-02T08:50:40.130Z,67.12
2019-05-02T08:53:08.688Z,67.12
2019-05-02T08:55:41.315Z,66.60
2019-05-02T08:58:14.263Z,66.77
2019-05-02T09:00:39.481Z,67.00
2019-05-02T09:03:07.759Z,65.59
2019-05-02T09:05:42.851Z,64.61
2019-05-02T09:08:09.201Z,64.45
2019-05-02T09:10:37.038Z,63.25
2019-05-02T09:13:06.754Z,62.87
2019-05-02T09:15:39.811Z,61.60
2019-05-02T09:18:05.422Z,61.61
2019-05-02T09:20:33.869Z,63.61
2019-05-02T09:23:02.292Z,63.02
2019-05-02T09:25:32.390Z,61.67
2019-05-02T09:28:01.868Z,62.21
2019-05-02T09:30:32.557Z,61.52
2019-05-02T09:33:02.776Z,61.08
2019-05-02T09:35:32.720Z,60.79
2019-05-02T09:38:01.733Z,59.05
2019-05-02T09:40:31.869Z,59.08
2019-05-02T09:43:02.734Z,60.33
2019-05-02T09:45:36.076Z,57.21
2019-05-02T09:48:07.035Z,57.21
2019-05-02T09:50:34.459Z,57.76
2019-05-02T09:53:02.792Z,56.89
2019-05-02T09:55:31.846Z,58.08
2019-05-02T09:58:02.479Z,56.98
2019-05-02T10:00:36.202Z,58.03
2019-05-02T10:03:02.782Z,55.97
2019-05-02T10:05:32.213Z,55.29
2019-05-02T10:08:03.046Z,55.51
2019-05-02T10:10:32.432Z,54.59
2019-05-02T10:13:02.790Z,54.05
2019-05-02T10:15:32.684Z,53.58
2019-05-02T10:18:10.273Z,53.26
2019-05-02T10:20:36.245Z,53.66
2019-05-02T10:23:02.403Z,53.17
2019-05-02T10:25:38.657Z,54.00
2019-05-02T10:28:02.157Z,54.10
2019-05-02T10:30:35.526Z,56.87
2019-05-02T10:33:03.148Z,54.06
2019-05-02T10:35:43.344Z,53.28
2019-05-02T10:38:17.648Z,51.70
2019-05-02T10:40:42.542Z,52.66
2019-05-02T10:43:11.859Z,52.77
2019-05-02T10:45:42.541Z,54.52
2019-05-02T10:48:22.857Z,54.79
2019-05-02T10:50:45.674Z,53.80
2019-05-02T10:53:15.632Z,52.17
2019-05-02T10:55:44.974Z,49.85
2019-05-02T10:58:13.420Z,49.03
2019-05-02T11:00:45.243Z,51.76
2019-05-02T11:03:19.915Z,53.88
2019-05-02T11:05:57.914Z,52.06
2019-05-02T11:08:26.398Z,50.69
2019-05-02T11:10:54.876Z,49.76
2019-05-02T11:13:42.505Z,48.73
2019-05-02T11:16:21.564Z,49.97
2019-05-02T11:18:52.512Z,49.79
2019-05-02T11:21:22.898Z,50.50
2019-05-02T11:23:52.568Z,49.26
2019-05-02T11:26:24.930Z,48.73
2019-05-02T11:28:52.147Z,47.53
2019-05-02T11:31:21.894Z,49.15
2019-05-02T11:33:52.684Z,48.38
2019-05-02T11:36:22.366Z,49.28
2019-05-02T11:38:59.704Z,46.69
2019-05-02T11:41:22.407Z,45.11
2019-05-02T11:43:54.145Z,46.92
2019-05-02T11:46:22.125Z,45.13
2019-05-02T11:48:56.190Z,48.37
2019-05-02T11:51:22.655Z,48.33
2019-05-02T11:53:52.708Z,46.73
2019-05-02T11:56:22.257Z,44.24
2019-05-02T11:58:52.624Z,45.24
2019-05-02T12:01:34.575Z,43.83
2019-05-02T12:03:52.544Z,42.21
2019-05-02T12:06:22.572Z,45.51
2019-05-02T12:08:52.604Z,45.42
2019-05-02T12:11:22.944Z,45.06
2019-05-02T12:13:54.787Z,47.96
2019-05-02T12:16:22.957Z,46.37
2019-05-02T12:18:53.592Z,45.98
2019-05-02T12:21:22.886Z,45.00
2019-05-02T12:23:52.595Z,43.76
2019-05-02T12:26:22.078Z,45.08
2019-05-02T12:28:52.649Z,40.51
2019-05-02T12:31:26.546Z,41.71
2019-05-02T12:33:56.015Z,42.92
2019-05-02T12:36:24.514Z,39.90
2019-05-02T12:38:52.920Z,42.25
2019-05-02T12:41:24.557Z,42.82
2019-05-02T12:43:52.480Z,41.17
2019-05-02T12:46:22.136Z,41.20
2019-05-02T12:48:51.941Z,41.14
2019-05-02T12:51:22.527Z,42.21
2019-05-02T12:53:52.874Z,43.53
2019-05-02T12:56:22.979Z,42.54
2019-05-02T12:58:53.007Z,44.50
2019-05-02T13:01:21.951Z,42.80
2019-05-02T13:03:52.106Z,43.86
2019-05-02T13:06:21.943Z,45.27
2019-05-02T13:08:52.411Z,42.01
2019-05-02T13:11:25.743Z,41.96
2019-05-02T13:13:54.239Z,42.19
2019-05-02T13:16:22.785Z,39.38
2019-05-02T13:18:51.907Z,41.29
2019-05-02T13:21:24.986Z,39.65
2019-05-02T13:23:55.050Z,41.74
2019-05-02T13:26:27.114Z,41.58
2019-05-02T13:28:53.740Z,42.25
2019-05-02T13:31:32.005Z,42.15
2019-05-02T13:34:15.031Z,43.02
2019-05-02T13:36:47.404Z,42.34
2019-05-02T13:39:34.246Z,42.94
2019-05-02T13:42:02.991Z,41.19
2019-05-02T13:44:33.043Z,40.51
2019-05-02T13:47:02.755Z,40.55
2019-05-02T13:49:32.409Z,41.20
2019-05-02T13:52:02.473Z,40.25
2019-05-02T13:54:32.955Z,41.20
2019-05-02T13:57:03.128Z,40.69
2019-05-02T13:59:33.739Z,40.82
2019-05-02T14:02:02.948Z,42.16
2019-05-02T14:04:32.684Z,40.25
2019-05-02T14:07:02.973Z,40.34
2019-05-02T14:09:33.180Z,39.60
2019-05-02T14:12:18.510Z,39.99
2019-05-02T14:14:46.934Z,39.41
2019-05-02T14:17:15.397Z,39.70
2019-05-02T14:19:43.876Z,39.66
2019-05-02T14:22:12.939Z,40.02
2019-05-02T14:24:42.201Z,38.50
2019-05-02T14:27:12.807Z,39.63
2019-05-02T14:29:42.364Z,40.28
2019-05-02T14:32:21.306Z,40.89
2019-05-02T14:34:54.686Z,41.46
2019-05-02T14:37:23.089Z,40.47
2019-05-02T14:39:54.131Z,39.43
2019-05-02T14:42:26.197Z,40.92
2019-05-02T14:45:05.536Z,40.87
2019-05-02T14:47:22.931Z,40.23
2019-05-02T14:49:52.202Z,42.29
2019-05-02T14:52:22.135Z,40.20
2019-05-02T14:54:52.520Z,39.92
2019-05-02T14:57:22.957Z,40.06
2019-05-02T14:59:59.272Z,40.60
2019-05-02T15:02:23.356Z,40.14
2019-05-02T15:04:52.304Z,41.87
2019-05-02T15:07:22.926Z,41.06
2019-05-02T15:09:52.517Z,40.85
2019-05-02T15:12:22.188Z,42.26
2019-05-02T15:14:57.486Z,41.99
2019-05-02T15:17:22.669Z,42.30
2019-05-02T15:19:52.724Z,42.69
2019-05-02T15:22:22.784Z,43.21
2019-05-02T15:24:52.958Z,43.40
2019-05-02T15:27:22.228Z,43.00
2019-05-02T15:29:53.946Z,43.00
2019-05-02T15:32:44.996Z,44.21
2019-05-02T15:35:12.811Z,45.79
2019-05-02T15:37:41.740Z,46.44
2019-05-02T15:42:42.321Z,49.18
2019-05-02T15:45:12.500Z,49.23
2019-05-02T15:47:41.562Z,49.63
2019-05-02T15:50:14.766Z,49.18
2019-05-02T15:52:43.748Z,50.45
2019-05-02T15:55:12.331Z,50.91
2019-05-02T15:57:43.648Z,51.55
2019-05-02T16:00:17.215Z,51.08
2019-05-02T16:02:44.888Z,51.65
2019-05-02T16:05:13.926Z,53.34
2019-05-02T16:07:45.516Z,53.00
2019-05-02T16:10:13.452Z,53.35
2019-05-02T16:12:43.587Z,54.13
2019-05-02T16:15:18.167Z,54.94
2019-05-02T16:17:42.411Z,55.28
2019-05-02T16:20:13.536Z,55.96
2019-05-02T16:22:46.287Z,56.17
2019-05-02T16:25:13.425Z,57.25
2019-05-02T16:27:48.584Z,57.82
2019-05-02T16:30:22.396Z,58.51
2019-05-02T16:32:52.557Z,58.54
2019-05-02T16:35:22.634Z,59.25
2019-05-02T16:37:52.249Z,60.36
2019-05-02T16:40:29.481Z,60.08
2019-05-02T16:42:52.018Z,60.78
2019-05-02T16:45:22.185Z,62.74
2019-05-02T16:47:58.795Z,66.76
2019-05-02T16:50:22.865Z,72.78
2019-05-02T16:52:53.088Z,76.97
2019-05-02T16:55:26.610Z,84.97
2019-05-02T16:57:56.628Z,86.80
2019-05-02T17:00:25.188Z,86.78
2019-05-02T17:02:53.672Z,88.28
2019-05-02T17:05:22.255Z,88.90
2019-05-02T17:08:10.591Z,89.92
2019-05-02T17:10:39.060Z,91.14
2019-05-02T17:13:07.485Z,91.05
2019-05-02T17:15:36.777Z,91.68
2019-05-02T17:18:12.848Z,91.89
2019-05-02T17:20:36.905Z,92.11
2019-05-02T17:23:07.560Z,92.13
2019-05-02T17:25:35.776Z,92.51
2019-05-02T17:28:10.001Z,92.67
2019-05-02T17:30:38.916Z,92.61
2019-05-02T17:33:07.330Z,92.52
2019-05-02T17:35:35.613Z,92.92
2019-05-02T17:38:04.209Z,92.88
2019-05-02T17:40:32.636Z,92.87
2019-05-02T17:43:02.863Z,92.86
2019-05-02T17:45:33.593Z,92.60
2019-05-02T17:48:01.451Z,92.57
2019-05-02T17:50:34.423Z,92.71
2019-05-02T17:53:04.711Z,92.08
2019-05-02T17:55:40.315Z,92.12
2019-05-02T17:58:12.144Z,92.10
2019-05-02T18:00:36.202Z,91.71
2019-05-02T18:03:05.223Z,92.69
2019-05-02T18:05:35.907Z,92.32
2019-05-02T18:08:05.980Z,92.24
2019-05-02T18:10:35.730Z,92.01
2019-05-02T18:13:04.561Z,91.70
2019-05-02T18:15:34.700Z,92.19
2019-05-02T18:18:06.820Z,92.61
2019-05-02T18:20:37.286Z,92.44
2019-05-02T18:23:05.954Z,92.15
2019-05-02T18:25:34.079Z,91.79
2019-05-02T18:28:02.664Z,92.03
2019-05-02T18:30:31.137Z,91.88
2019-05-02T18:33:05.277Z,91.93
2019-05-02T18:35:29.890Z,92.17
2019-05-02T18:37:58.332Z,92.13
2019-05-02T18:40:29.452Z,92.27
2019-05-02T18:43:02.029Z,92.33
2019-05-02T18:45:28.798Z,92.36
2019-05-02T18:48:02.295Z,92.46
2019-05-02T18:50:36.839Z,92.89
2019-05-02T18:53:04.588Z,92.42
2019-05-02T18:55:33.785Z,92.84
2019-05-02T18:58:05.363Z,92.87
2019-05-02T19:00:38.299Z,92.90
2019-05-02T19:03:07.470Z,92.72
2019-05-02T19:05:33.643Z,92.48
2019-05-02T19:08:02.626Z,92.61
2019-05-02T19:10:32.341Z,92.70
2019-05-02T19:13:04.433Z,92.74
2019-05-02T19:15:34.056Z,92.75
2019-05-02T19:18:02.614Z,92.86
2019-05-02T19:20:37.180Z,92.99
2019-05-02T19:23:05.691Z,92.81
2019-05-02T19:25:34.133Z,92.61
2019-05-02T19:28:13.250Z,92.58
2019-05-02T19:30:42.621Z,92.57
2019-05-02T19:33:12.140Z,93.37
2019-05-02T19:35:45.267Z,93.21
2019-05-02T19:38:11.871Z,93.05
2019-05-02T19:40:42.614Z,93.19
2019-05-02T19:43:14.561Z,93.21
2019-05-02T19:45:41.101Z,93.19
2019-05-02T19:48:09.886Z,93.43
2019-05-02T19:50:43.763Z,93.33
2019-05-02T19:53:17.742Z,93.33
2019-05-02T19:55:42.949Z,93.13
2019-05-02T19:58:11.815Z,93.47
2019-05-02T20:00:42.263Z,93.39
2019-05-02T20:03:13.716Z,93.35
2019-05-02T20:05:42.737Z,93.30
2019-05-02T20:08:14.641Z,93.08
2019-05-02T20:10:42.345Z,93.47
2019-05-02T20:13:11.997Z,93.38
2019-05-02T20:16:04.428Z,93.49
2019-05-02T20:18:34.975Z,93.84
2019-05-02T20:21:02.588Z,93.83
2019-05-02T20:23:35.527Z,93.69
2019-05-02T20:26:01.534Z,93.70
2019-05-02T20:28:31.757Z,93.91
2019-05-02T20:31:01.774Z,93.66
2019-05-02T20:33:30.181Z,93.66
2019-05-02T20:35:59.072Z,93.76
2019-05-02T20:38:27.507Z,93.70
2019-05-02T20:40:56.158Z,93.64
2019-05-02T20:43:24.633Z,93.68
2019-05-02T20:45:53.183Z,93.49
2019-05-02T20:48:22.740Z,93.49
2019-05-02T20:50:52.048Z,93.70
2019-05-02T20:53:28.748Z,93.89
2019-05-02T20:55:52.410Z,93.55
2019-05-02T20:58:22.010Z,93.72
2019-05-02T21:01:05.123Z,93.94
2019-05-02T21:03:20.977Z,93.88
2019-05-02T21:05:53.937Z,94.22
2019-05-02T21:08:29.700Z,94.28
2019-05-02T21:11:02.462Z,94.27
2019-05-02T21:13:32.633Z,94.15
2019-05-02T21:16:01.808Z,94.06
2019-05-02T21:18:30.380Z,93.59
2019-05-02T21:20:58.857Z,94.06
2019-05-02T21:23:27.408Z,93.70
2019-05-02T21:25:55.864Z,93.78
2019-05-02T21:28:24.388Z,93.41
2019-05-02T21:30:52.890Z,93.12
2019-05-02T21:33:31.990Z,93.50
2019-05-02T21:36:01.035Z,93.59
2019-05-02T21:38:29.435Z,93.26
2019-05-02T21:40:58.213Z,92.86
2019-05-02T21:43:26.702Z,92.89
2019-05-02T21:45:55.223Z,93.02
2019-05-02T21:48:24.924Z,93.40
2019-05-02T21:50:54.960Z,93.44
2019-05-02T21:53:32.605Z,93.62
2019-05-02T21:56:02.861Z,93.96
2019-05-02T21:58:32.324Z,94.00
2019-05-02T22:01:05.257Z,93.82
2019-05-02T22:03:33.881Z,93.40
2019-05-02T22:06:02.403Z,93.55
2019-05-02T22:08:32.295Z,93.18
2019-05-02T22:11:00.795Z,93.01
2019-05-02T22:13:29.245Z,93.03
2019-05-02T22:15:57.666Z,92.92
2019-05-02T22:18:26.062Z,92.82
2019-05-02T22:20:54.446Z,92.34
2019-05-02T22:23:22.923Z,91.96
2019-05-02T22:25:52.637Z,91.92
2019-05-02T22:28:22.112Z,91.96
2019-05-02T22:30:54.364Z,92.10
2019-05-02T22:33:22.191Z,92.39
2019-05-02T22:35:52.427Z,92.24
2019-05-02T22:38:24.795Z,92.59
2019-05-02T22:40:54.818Z,92.73
2019-05-02T22:43:23.214Z,92.98
2019-05-02T22:45:51.650Z,93.13
2019-05-02T22:48:20.098Z,93.17
2019-05-02T22:50:48.582Z,93.07
2019-05-02T22:53:17.033Z,93.14
2019-05-02T22:55:45.473Z,93.07
2019-05-02T22:58:13.924Z,93.23
2019-05-02T23:00:42.349Z,93.51
2019-05-02T23:03:12.496Z,93.71
2019-05-02T23:05:42.127Z,93.96
2019-05-02T23:08:12.457Z,94.45
2019-05-02T23:10:41.621Z,94.45
2019-05-02T23:13:10.050Z,94.72
2019-05-02T23:15:38.472Z,94.75
2019-05-02T23:18:06.913Z,94.69
2019-05-02T23:20:35.355Z,94.66
2019-05-02T23:23:03.858Z,94.43
2019-05-02T23:25:51.831Z,94.36
2019-05-02T23:28:22.192Z,94.24
2019-05-02T23:30:51.998Z,94.29
2019-05-02T23:33:23.413Z,94.66
2019-05-02T23:35:52.117Z,94.63
2019-05-02T23:38:21.749Z,94.44
2019-05-02T23:40:50.261Z,94.50
2019-05-02T23:43:18.677Z,94.33
2019-05-02T23:45:47.107Z,94.14
2019-05-02T23:48:15.548Z,94.45
2019-05-02T23:50:43.990Z,94.45
2019-05-02T23:53:12.869Z,94.33
2019-05-02T23:55:42.607Z,94.18
2019-05-02T23:58:12.117Z,94.26
